createdAt,value
2018-11-03T00:00:46.685Z,12.67
2018-11-03T00:03:15.441Z,12.40
2018-11-03T00:05:44.133Z,12.67
2018-11-03T00:08:12.615Z,12.00
2018-11-03T00:10:41.287Z,13.23
2018-11-03T00:13:09.736Z,13.40
2018-11-03T00:15:38.287Z,12.80
2018-11-03T00:18:07.091Z,13.70
2018-11-03T00:20:35.854Z,12.97
2018-11-03T00:23:04.575Z,13.10
2018-11-03T00:25:33.314Z,13.27
2018-11-03T00:28:01.985Z,14.03
2018-11-03T00:30:30.461Z,13.57
2018-11-03T00:32:59.026Z,12.50
2018-11-03T00:35:27.624Z,12.53
2018-11-03T00:37:56.424Z,13.00
2018-11-03T00:40:24.947Z,12.57
2018-11-03T00:42:53.599Z,11.70
2018-11-03T00:45:22.395Z,13.13
2018-11-03T00:47:51.311Z,12.77
2018-11-03T00:50:19.994Z,11.27
2018-11-03T00:52:49.283Z,11.90
2018-11-03T00:55:17.975Z,12.33
2018-11-03T00:57:46.527Z,12.87
2018-11-03T01:00:18.195Z,13.23
2018-11-03T01:02:47.855Z,12.63
2018-11-03T01:05:16.554Z,13.10
2018-11-03T01:07:45.545Z,12.83
2018-11-03T01:10:14.318Z,12.53
2018-11-03T01:12:43.134Z,11.40
2018-11-03T01:15:14.115Z,12.80
2018-11-03T01:17:43.050Z,13.87
2018-11-03T01:20:13.542Z,12.93
2018-11-03T01:22:42.436Z,12.73
2018-11-03T01:25:11.477Z,14.57
2018-11-03T01:27:40.331Z,12.70
2018-11-03T01:30:11.809Z,11.90
2018-11-03T01:32:40.356Z,12.33
2018-11-03T01:35:09.715Z,13.40
2018-11-03T01:37:39.268Z,13.73
2018-11-03T01:40:08.809Z,14.00
2018-11-03T01:42:37.733Z,13.43
2018-11-03T01:45:06.427Z,13.27
2018-11-03T01:47:35.230Z,13.83
2018-11-03T01:50:04.170Z,13.50
2018-11-03T01:52:32.701Z,12.30
2018-11-03T01:55:01.199Z,13.43
2018-11-03T01:57:30.222Z,12.77
2018-11-03T01:59:58.730Z,12.77
2018-11-03T02:02:27.360Z,13.50
2018-11-03T02:04:55.940Z,13.23
2018-11-03T02:07:24.541Z,13.13
2018-11-03T02:09:53.113Z,13.03
2018-11-03T02:12:21.584Z,12.30
2018-11-03T02:14:50.179Z,12.97
2018-11-03T02:17:18.959Z,12.47
2018-11-03T02:19:47.500Z,12.63
2018-11-03T02:22:15.966Z,12.47
2018-11-03T02:24:44.725Z,12.57
2018-11-03T02:27:13.239Z,12.53
2018-11-03T02:29:41.783Z,13.23
2018-11-03T02:32:10.311Z,12.63
2018-11-03T02:34:38.822Z,12.07
2018-11-03T02:37:07.310Z,12.80
2018-11-03T02:39:36.021Z,11.20
2018-11-03T02:42:04.742Z,11.77
2018-11-03T02:44:33.283Z,11.07
2018-11-03T02:47:01.747Z,11.13
2018-11-03T02:49:30.341Z,11.70
2018-11-03T02:51:58.787Z,11.07
2018-11-03T02:54:27.403Z,11.37
2018-11-03T02:56:55.993Z,11.00
2018-11-03T02:59:24.503Z,10.57
2018-11-03T03:01:53.070Z,11.17
2018-11-03T03:04:21.630Z,10.83
2018-11-03T03:06:50.117Z,11.80
2018-11-03T03:09:18.566Z,11.27
2018-11-03T03:11:47.342Z,11.00
2018-11-03T03:14:15.798Z,10.47
2018-11-03T03:16:44.259Z,10.13
2018-11-03T03:19:12.967Z,11.03
2018-11-03T03:21:41.419Z,11.17
2018-11-03T03:24:09.883Z,11.80
2018-11-03T03:26:38.585Z,11.27
2018-11-03T03:29:07.201Z,11.10
2018-11-03T03:31:35.859Z,10.90
2018-11-03T03:34:04.625Z,11.00
2018-11-03T03:36:33.103Z,10.70
2018-11-03T03:39:01.613Z,11.43
2018-11-03T03:41:30.181Z,10.37
2018-11-03T03:43:58.746Z,11.07
2018-11-03T03:46:27.312Z,11.03
2018-11-03T03:48:55.891Z,11.57
2018-11-03T03:51:24.340Z,10.83
2018-11-03T03:53:52.869Z,10.60
2018-11-03T03:56:22.504Z,10.47
2018-11-03T03:58:51.012Z,10.37
2018-11-03T04:01:19.767Z,11.90
2018-11-03T04:03:48.993Z,10.60
2018-11-03T04:06:17.549Z,10.97
2018-11-03T04:08:46.043Z,9.90
2018-11-03T04:11:14.645Z,10.00
2018-11-03T04:13:43.330Z,10.97
2018-11-03T04:16:11.842Z,10.50
2018-11-03T04:18:41.001Z,10.97
2018-11-03T04:21:09.647Z,10.57
2018-11-03T04:23:38.109Z,10.63
2018-11-03T04:26:06.803Z,10.97
2018-11-03T04:28:35.430Z,10.70
2018-11-03T04:31:03.888Z,10.77
2018-11-03T04:33:32.550Z,10.43
2018-11-03T04:36:01.333Z,11.13
2018-11-03T04:38:29.915Z,11.87
2018-11-03T04:40:58.383Z,11.70
2018-11-03T04:43:26.877Z,11.37
2018-11-03T04:45:55.473Z,10.90
2018-11-03T04:48:24.003Z,10.50
2018-11-03T04:50:52.622Z,11.97
2018-11-03T04:53:21.079Z,11.40
2018-11-03T04:55:49.855Z,10.23
2018-11-03T04:58:18.302Z,10.93
2018-11-03T05:00:46.749Z,10.63
2018-11-03T05:03:15.332Z,10.33
2018-11-03T05:05:43.837Z,10.43
2018-11-03T05:08:12.394Z,11.17
2018-11-03T05:10:40.901Z,10.40
2018-11-03T05:13:09.562Z,11.03
2018-11-03T05:15:38.143Z,10.87
2018-11-03T05:18:06.603Z,10.23
2018-11-03T05:20:35.091Z,10.67
2018-11-03T05:23:03.768Z,10.60
2018-11-03T05:25:32.227Z,10.37
2018-11-03T05:28:00.781Z,9.83
2018-11-03T05:30:29.199Z,10.57
2018-11-03T05:32:57.700Z,10.67
2018-11-03T05:35:26.177Z,9.63
2018-11-03T05:37:54.782Z,10.43
2018-11-03T05:40:23.255Z,11.27
2018-11-03T05:42:51.702Z,10.87
2018-11-03T05:45:20.259Z,10.33
2018-11-03T05:47:48.675Z,9.40
2018-11-03T05:50:17.375Z,9.80
2018-11-03T05:52:45.991Z,10.00
2018-11-03T05:55:14.745Z,9.10
2018-11-03T05:57:43.211Z,10.30
2018-11-03T06:00:11.719Z,10.00
2018-11-03T06:02:40.220Z,10.50
2018-11-03T06:05:08.705Z,10.37
2018-11-03T06:07:37.147Z,9.43
2018-11-03T06:10:06.219Z,10.70
2018-11-03T06:12:34.654Z,11.13
2018-11-03T06:15:03.096Z,11.40
2018-11-03T06:17:31.572Z,11.83
2018-11-03T06:20:00.167Z,16.60
2018-11-03T06:22:28.621Z,10.87
2018-11-03T06:24:57.428Z,10.00
2018-11-03T06:27:26.199Z,10.27
2018-11-03T06:29:54.645Z,9.63
2018-11-03T06:32:23.075Z,9.53
2018-11-03T06:34:51.583Z,10.70
2018-11-03T06:37:20.242Z,9.83
2018-11-03T06:39:48.754Z,9.43
2018-11-03T06:42:17.387Z,10.20
2018-11-03T06:44:45.845Z,9.17
2018-11-03T06:47:14.513Z,9.20
2018-11-03T06:49:43.150Z,9.23
2018-11-03T06:52:11.599Z,9.20
2018-11-03T06:54:40.227Z,9.70
2018-11-03T06:57:08.628Z,9.20
2018-11-03T06:59:37.247Z,8.63
2018-11-03T07:02:05.703Z,10.00
2018-11-03T07:04:34.171Z,9.03
2018-11-03T07:07:02.717Z,8.70
2018-11-03T07:09:31.297Z,8.90
2018-11-03T07:11:59.769Z,9.17
2018-11-03T07:14:28.358Z,9.50
2018-11-03T07:16:56.789Z,8.87
2018-11-03T07:19:25.520Z,9.07
2018-11-03T07:21:54.041Z,7.93
2018-11-03T07:24:22.678Z,8.37
2018-11-03T07:26:51.273Z,9.93
2018-11-03T07:29:19.926Z,9.27
2018-11-03T07:31:48.943Z,13.47
2018-11-03T07:34:17.462Z,10.97
2018-11-03T07:36:46.195Z,10.07
2018-11-03T07:39:16.519Z,10.67
2018-11-03T07:41:45.259Z,9.20
2018-11-03T07:44:13.782Z,10.07
2018-11-03T07:46:42.605Z,10.93
2018-11-03T07:49:16.095Z,9.83
2018-11-03T07:51:45.927Z,9.60
2018-11-03T07:54:15.455Z,9.80
2018-11-03T07:56:43.895Z,9.77
2018-11-03T07:59:12.466Z,9.17
2018-11-03T08:01:40.960Z,10.00
2018-11-03T08:04:09.793Z,9.97
2018-11-03T08:06:38.607Z,9.23
2018-11-03T08:09:08.724Z,10.70
2018-11-03T08:11:37.380Z,10.03
2018-11-03T08:14:05.994Z,10.27
2018-11-03T08:16:34.741Z,11.63
2018-11-03T08:19:03.233Z,15.33
2018-11-03T08:21:31.872Z,15.57
2018-11-03T08:24:00.411Z,25.53
2018-11-03T08:26:29.155Z,15.93
2018-11-03T08:28:57.836Z,29.80
2018-11-03T08:31:26.821Z,22.63
2018-11-03T08:33:55.491Z,16.60
2018-11-03T08:36:24.196Z,12.23
2018-11-03T08:38:53.779Z,13.10
2018-11-03T08:41:22.329Z,11.43
2018-11-03T08:43:50.778Z,12.20
2018-11-03T08:46:19.524Z,12.57
2018-11-03T08:48:48.091Z,17.60
2018-11-03T08:51:16.667Z,19.13
2018-11-03T08:53:45.107Z,22.37
2018-11-03T08:56:13.655Z,20.10
2018-11-03T08:58:42.278Z,12.30
2018-11-03T09:01:10.924Z,14.80
2018-11-03T09:03:39.602Z,26.33
2018-11-03T09:06:08.045Z,17.23
2018-11-03T09:08:36.870Z,19.90
2018-11-03T09:11:05.553Z,15.43
2018-11-03T09:13:34.113Z,15.67
2018-11-03T09:16:02.545Z,12.53
2018-11-03T09:18:31.200Z,14.07
2018-11-03T09:20:59.810Z,11.90
2018-11-03T09:23:28.286Z,11.60
2018-11-03T09:25:56.785Z,11.23
2018-11-03T09:28:25.358Z,12.67
2018-11-03T09:30:53.908Z,20.73
2018-11-03T09:33:22.489Z,15.30
2018-11-03T09:35:50.943Z,20.17
2018-11-03T09:38:19.527Z,19.87
2018-11-03T09:40:48.107Z,14.97
2018-11-03T09:43:16.645Z,11.20
2018-11-03T09:45:45.271Z,12.33
2018-11-03T09:48:13.783Z,17.63
2018-11-03T09:50:42.616Z,21.93
2018-11-03T09:53:11.207Z,22.00
2018-11-03T09:55:39.630Z,22.47
2018-11-03T09:58:08.293Z,13.70
2018-11-03T10:00:37.119Z,12.57
2018-11-03T10:03:05.636Z,15.40
2018-11-03T10:05:34.225Z,14.53
2018-11-03T10:08:02.791Z,14.03
2018-11-03T10:10:31.222Z,14.97
2018-11-03T10:12:59.856Z,15.67
2018-11-03T10:15:28.573Z,13.20
2018-11-03T10:17:57.144Z,15.47
2018-11-03T10:20:25.762Z,12.43
2018-11-03T10:22:54.734Z,13.80
2018-11-03T10:25:23.511Z,13.63
2018-11-03T10:27:52.117Z,14.90
2018-11-03T10:30:20.579Z,15.00
2018-11-03T10:32:49.081Z,18.70
2018-11-03T10:35:17.758Z,16.60
2018-11-03T10:37:46.226Z,14.33
2018-11-03T10:40:16.237Z,13.27
2018-11-03T10:42:44.771Z,13.33
2018-11-03T10:45:14.374Z,12.83
2018-11-03T10:47:43.127Z,13.70
2018-11-03T10:50:15.485Z,13.40
2018-11-03T10:52:44.603Z,16.23
2018-11-03T10:55:14.275Z,16.40
2018-11-03T10:57:42.878Z,18.50
2018-11-03T11:00:19.077Z,16.73
2018-11-03T11:02:53.056Z,17.80
2018-11-03T11:05:26.954Z,17.53
2018-11-03T11:08:00.985Z,14.77
2018-11-03T11:10:35.108Z,16.70
2018-11-03T11:13:09.005Z,15.33
2018-11-03T11:15:37.440Z,15.63
2018-11-03T11:18:06.284Z,17.67
2018-11-03T11:20:34.839Z,16.43
2018-11-03T11:23:03.428Z,16.03
2018-11-03T11:25:32.041Z,15.70
2018-11-03T11:28:00.677Z,16.30
2018-11-03T11:30:34.715Z,17.43
2018-11-03T11:33:03.293Z,16.70
2018-11-03T11:35:31.982Z,16.43
2018-11-03T11:38:00.770Z,18.10
2018-11-03T11:40:29.392Z,17.17
2018-11-03T11:42:57.956Z,17.53
2018-11-03T11:45:26.825Z,16.93
2018-11-03T11:47:55.269Z,17.33
2018-11-03T11:50:23.836Z,18.13
2018-11-03T11:52:52.871Z,16.90
2018-11-03T11:55:21.379Z,17.27
2018-11-03T11:57:50.250Z,17.17
2018-11-03T12:00:18.763Z,16.33
2018-11-03T12:02:47.499Z,16.80
2018-11-03T12:05:15.968Z,16.83
2018-11-03T12:07:44.471Z,16.97
2018-11-03T12:10:13.046Z,16.60
2018-11-03T12:12:41.695Z,17.00
2018-11-03T12:15:10.971Z,18.17
2018-11-03T12:17:39.446Z,17.90
2018-11-03T12:20:08.101Z,17.80
2018-11-03T12:22:36.830Z,17.13
2018-11-03T12:25:06.038Z,17.53
2018-11-03T12:27:34.465Z,17.73
2018-11-03T12:30:03.318Z,18.20
2018-11-03T12:32:31.994Z,17.00
2018-11-03T12:35:00.511Z,19.10
2018-11-03T12:37:29.174Z,20.27
2018-11-03T12:39:57.669Z,19.53
2018-11-03T12:42:26.142Z,18.30
2018-11-03T12:44:54.670Z,19.70
2018-11-03T12:47:23.315Z,19.37
2018-11-03T12:49:56.101Z,19.67
2018-11-03T12:52:24.584Z,19.57
2018-11-03T12:54:53.059Z,19.43
2018-11-03T12:57:21.837Z,20.30
2018-11-03T12:59:50.297Z,18.67
2018-11-03T13:02:18.725Z,19.27
2018-11-03T13:04:47.406Z,20.20
2018-11-03T13:07:16.005Z,19.80
2018-11-03T13:09:44.634Z,20.13
2018-11-03T13:12:13.154Z,20.13
2018-11-03T13:14:41.734Z,22.90
2018-11-03T13:17:10.354Z,24.83
2018-11-03T13:19:38.834Z,23.93
2018-11-03T13:22:07.287Z,25.37
2018-11-03T13:24:35.823Z,25.63
2018-11-03T13:27:04.222Z,35.37
2018-11-03T13:29:32.799Z,25.67
2018-11-03T13:32:01.231Z,27.80
2018-11-03T13:34:29.668Z,26.37
2018-11-03T13:36:58.140Z,23.80
2018-11-03T13:39:26.701Z,23.63
2018-11-03T13:41:55.170Z,22.73
2018-11-03T13:44:23.644Z,23.20
2018-11-03T13:46:52.083Z,23.17
2018-11-03T13:49:20.720Z,25.13
2018-11-03T13:51:49.311Z,21.03
2018-11-03T13:54:17.928Z,20.93
2018-11-03T13:56:46.490Z,20.27
2018-11-03T13:59:14.985Z,20.70
2018-11-03T14:01:43.458Z,19.73
2018-11-03T14:04:12.047Z,23.17
2018-11-03T14:06:41.395Z,19.93
2018-11-03T14:09:10.805Z,18.93
2018-11-03T14:11:40.109Z,20.07
2018-11-03T14:14:09.099Z,20.27
2018-11-03T14:16:37.586Z,21.00
2018-11-03T14:19:06.483Z,20.23
2018-11-03T14:21:34.935Z,20.73
2018-11-03T14:24:03.360Z,21.37
2018-11-03T14:26:31.952Z,20.53
2018-11-03T14:29:00.743Z,19.93
2018-11-03T14:31:29.082Z,20.37
2018-11-03T14:33:57.528Z,22.17
2018-11-03T14:36:26.168Z,21.17
2018-11-03T14:38:54.631Z,22.27
2018-11-03T14:41:23.221Z,22.40
2018-11-03T14:43:51.683Z,22.10
2018-11-03T14:46:20.213Z,22.93
2018-11-03T14:48:48.631Z,24.63
2018-11-03T14:51:17.190Z,23.37
2018-11-03T14:53:45.660Z,23.60
2018-11-03T14:56:14.206Z,23.83
2018-11-03T14:58:42.818Z,24.53
2018-11-03T15:01:11.396Z,23.47
2018-11-03T15:03:39.823Z,24.80
2018-11-03T15:06:08.265Z,24.97
2018-11-03T15:08:36.804Z,24.67
2018-11-03T15:11:05.526Z,24.40
2018-11-03T15:13:34.074Z,25.97
2018-11-03T15:16:02.746Z,25.70
2018-11-03T15:18:31.192Z,25.77
2018-11-03T15:20:59.637Z,25.33
2018-11-03T15:23:28.075Z,25.67
2018-11-03T15:25:56.564Z,26.57
2018-11-03T15:28:25.244Z,24.40
2018-11-03T15:30:53.711Z,25.73
2018-11-03T15:33:22.152Z,25.20
2018-11-03T15:35:50.740Z,25.37
2018-11-03T15:38:19.159Z,25.87
2018-11-03T15:40:47.607Z,24.87
2018-11-03T15:43:16.027Z,32.13
2018-11-03T15:45:44.503Z,40.10
2018-11-03T15:48:13.051Z,27.27
2018-11-03T15:50:46.793Z,26.50
2018-11-03T15:53:15.269Z,26.67
2018-11-03T15:55:43.807Z,25.70
2018-11-03T15:58:12.529Z,27.87
2018-11-03T16:00:40.984Z,25.97
2018-11-03T16:03:09.573Z,27.60
2018-11-03T16:05:37.988Z,28.50
2018-11-03T16:08:06.516Z,26.67
2018-11-03T16:10:34.944Z,24.67
2018-11-03T16:13:03.382Z,26.17
2018-11-03T16:15:31.776Z,25.37
2018-11-03T16:18:00.498Z,24.97
2018-11-03T16:20:28.901Z,26.93
2018-11-03T16:22:57.304Z,27.43
2018-11-03T16:25:25.727Z,27.40
2018-11-03T16:27:54.167Z,27.60
2018-11-03T16:30:22.597Z,27.27
2018-11-03T16:32:51.107Z,26.70
2018-11-03T16:35:19.648Z,27.80
2018-11-03T16:37:48.303Z,26.20
2018-11-03T16:40:16.788Z,26.63
2018-11-03T16:42:45.784Z,28.43
2018-11-03T16:45:15.446Z,27.70
2018-11-03T16:47:44.173Z,27.53
2018-11-03T16:50:13.602Z,27.83
2018-11-03T16:52:42.272Z,26.50
2018-11-03T16:55:11.992Z,26.93
2018-11-03T16:57:40.782Z,27.23
2018-11-03T17:00:11.500Z,28.07
2018-11-03T17:02:40.328Z,27.20
2018-11-03T17:05:09.932Z,25.97
2018-11-03T17:07:38.360Z,27.50
2018-11-03T17:10:08.898Z,27.97
2018-11-03T17:12:37.834Z,27.87
2018-11-03T17:15:06.565Z,28.90
2018-11-03T17:17:35.080Z,27.70
2018-11-03T17:20:03.502Z,31.27
2018-11-03T17:22:31.937Z,32.03
2018-11-03T17:25:00.367Z,40.03
2018-11-03T17:27:29.333Z,30.63
2018-11-03T17:29:57.760Z,29.37
2018-11-03T17:32:26.229Z,30.27
2018-11-03T17:34:54.938Z,29.83
2018-11-03T17:37:23.686Z,27.03
2018-11-03T17:39:52.164Z,28.33
2018-11-03T17:42:20.625Z,27.87
2018-11-03T17:44:49.095Z,26.33
2018-11-03T17:47:17.610Z,29.33
2018-11-03T17:49:46.059Z,27.90
2018-11-03T17:52:14.580Z,28.33
2018-11-03T17:54:43.099Z,31.43
2018-11-03T17:57:11.691Z,26.40
2018-11-03T17:59:40.142Z,28.03
2018-11-03T18:02:08.771Z,26.53
2018-11-03T18:04:37.210Z,26.60
2018-11-03T18:07:05.923Z,27.13
2018-11-03T18:09:34.382Z,25.90
2018-11-03T18:12:03.169Z,28.13
2018-11-03T18:14:31.713Z,26.30
2018-11-03T18:17:00.388Z,26.83
2018-11-03T18:19:28.994Z,26.57
2018-11-03T18:21:57.813Z,26.80
2018-11-03T18:24:26.369Z,26.20
2018-11-03T18:26:54.880Z,26.13
2018-11-03T18:29:23.339Z,26.60
2018-11-03T18:31:51.789Z,27.03
2018-11-03T18:34:20.328Z,26.53
2018-11-03T18:36:48.929Z,25.80
2018-11-03T18:39:17.447Z,26.13
2018-11-03T18:41:46.216Z,24.50
2018-11-03T18:44:14.688Z,22.70
2018-11-03T18:46:43.169Z,22.80
2018-11-03T18:49:11.798Z,23.07
2018-11-03T18:51:40.371Z,23.50
2018-11-03T18:54:09.113Z,23.73
2018-11-03T18:56:37.840Z,23.70
2018-11-03T18:59:06.670Z,23.73
2018-11-03T19:01:35.160Z,23.20
2018-11-03T19:04:03.639Z,22.37
2018-11-03T19:06:32.169Z,22.93
2018-11-03T19:09:00.678Z,24.00
2018-11-03T19:11:29.132Z,23.53
2018-11-03T19:13:57.571Z,22.83
2018-11-03T19:16:25.988Z,23.70
2018-11-03T19:18:54.570Z,23.33
2018-11-03T19:21:23.100Z,22.90
2018-11-03T19:23:51.895Z,23.20
2018-11-03T19:26:20.400Z,22.67
2018-11-03T19:28:48.964Z,22.87
2018-11-03T19:31:17.372Z,23.23
2018-11-03T19:33:45.948Z,23.80
2018-11-03T19:36:14.517Z,24.03
2018-11-03T19:38:43.072Z,23.90
2018-11-03T19:41:11.616Z,23.83
2018-11-03T19:43:40.087Z,23.97
2018-11-03T19:46:08.594Z,23.43
2018-11-03T19:48:37.106Z,23.57
2018-11-03T19:51:05.700Z,22.40
2018-11-03T19:53:34.254Z,23.47
2018-11-03T19:56:02.732Z,25.10
2018-11-03T19:58:31.350Z,23.87
2018-11-03T20:00:59.922Z,26.40
2018-11-03T20:03:28.462Z,32.63
2018-11-03T20:05:57.099Z,30.77
2018-11-03T20:08:25.521Z,26.07
2018-11-03T20:10:54.014Z,24.87
2018-11-03T20:13:22.452Z,25.90
2018-11-03T20:15:50.911Z,24.40
2018-11-03T20:18:19.331Z,26.80
2018-11-03T20:20:47.821Z,29.93
2018-11-03T20:23:16.398Z,28.53
2018-11-03T20:25:45.247Z,27.83
2018-11-03T20:28:13.762Z,30.60
2018-11-03T20:30:42.225Z,33.53
2018-11-03T20:33:10.648Z,27.60
2018-11-03T20:35:39.184Z,25.63
2018-11-03T20:38:07.653Z,31.70
2018-11-03T20:40:36.106Z,37.93
2018-11-03T20:43:04.612Z,36.17
2018-11-03T20:45:33.134Z,31.40
2018-11-03T20:48:01.633Z,25.03
2018-11-03T20:50:30.237Z,22.80
2018-11-03T20:52:58.755Z,22.30
2018-11-03T20:55:27.253Z,25.60
2018-11-03T20:57:55.716Z,21.70
2018-11-03T21:00:24.312Z,25.10
2018-11-03T21:02:53.668Z,26.13
2018-11-03T21:05:22.348Z,30.87
2018-11-03T21:07:50.834Z,24.77
2018-11-03T21:10:19.502Z,22.03
2018-11-03T21:12:48.100Z,22.10
2018-11-03T21:15:16.679Z,22.10
2018-11-03T21:17:45.139Z,24.07
2018-11-03T21:20:13.553Z,24.07
2018-11-03T21:22:42.012Z,24.43
2018-11-03T21:25:10.575Z,22.63
2018-11-03T21:27:39.098Z,22.70
2018-11-03T21:30:09.131Z,22.63
2018-11-03T21:32:38.074Z,22.53
2018-11-03T21:35:07.243Z,26.80
2018-11-03T21:37:35.734Z,21.33
2018-11-03T21:40:04.486Z,20.70
2018-11-03T21:42:32.965Z,22.30
2018-11-03T21:45:01.517Z,21.57
2018-11-03T21:47:29.960Z,21.07
2018-11-03T21:49:58.400Z,19.97
2018-11-03T21:52:28.190Z,19.37
2018-11-03T21:54:56.603Z,24.77
2018-11-03T21:57:25.076Z,22.00
2018-11-03T21:59:53.527Z,22.27
2018-11-03T22:02:22.063Z,23.33
2018-11-03T22:04:50.494Z,24.03
2018-11-03T22:07:18.971Z,26.60
2018-11-03T22:09:47.547Z,25.53
2018-11-03T22:12:16.021Z,26.87
2018-11-03T22:14:44.531Z,28.00
2018-11-03T22:17:13.176Z,25.03
2018-11-03T22:19:41.662Z,25.70
2018-11-03T22:22:10.246Z,26.77
2018-11-03T22:24:38.827Z,26.47
2018-11-03T22:27:07.374Z,25.97
2018-11-03T22:29:35.920Z,25.03
2018-11-03T22:32:04.417Z,27.07
2018-11-03T22:34:32.939Z,25.43
2018-11-03T22:37:01.493Z,26.77
2018-11-03T22:39:29.983Z,26.23
2018-11-03T22:41:58.517Z,24.80
2018-11-03T22:44:27.152Z,25.83
2018-11-03T22:46:55.648Z,24.43
2018-11-03T22:49:24.102Z,26.60
2018-11-03T22:51:52.782Z,25.40
2018-11-03T22:54:21.380Z,24.83
2018-11-03T22:56:49.859Z,25.80
2018-11-03T22:59:22.679Z,25.30
2018-11-03T23:01:52.178Z,24.77
2018-11-03T23:04:20.900Z,25.47
2018-11-03T23:06:49.491Z,24.57
2018-11-03T23:09:17.920Z,25.87
2018-11-03T23:11:46.485Z,26.87
2018-11-03T23:14:15.109Z,24.50
2018-11-03T23:16:43.619Z,26.37
2018-11-03T23:19:12.398Z,28.43
2018-11-03T23:21:41.059Z,29.87
2018-11-03T23:24:09.633Z,26.97
2018-11-03T23:26:39.087Z,28.27
2018-11-03T23:29:07.773Z,28.87
2018-11-03T23:31:36.273Z,24.63
2018-11-03T23:34:04.853Z,26.63
2018-11-03T23:36:33.840Z,26.57
2018-11-03T23:39:02.551Z,25.60
2018-11-03T23:41:31.094Z,24.03
2018-11-03T23:43:59.559Z,24.93
2018-11-03T23:46:28.048Z,24.93
2018-11-03T23:48:56.608Z,25.93
2018-11-03T23:51:25.218Z,23.53
2018-11-03T23:53:53.691Z,24.30
2018-11-03T23:56:22.231Z,22.70
2018-11-03T23:58:50.677Z,25.00
